Latest Weather Observations for PORTABLE QFRJ (North Tamborine)

IDQ60801

Issued at 1:22 am EST Saturday 29 February 2020 (issued every 10 minutes, with the page automatically refreshed every 10 minutes)

About weather observations | Map of weather stations | Latest weather observations for QLD | Other Formats
Station Details ID: 250074 Name: PORTABLE QFRJ (NORTH TAMBORINE) Lat: -27.94 Lon: 153.19 Height: 527.0 m

Portable automatic weather stations (PAWS) are operated by other organisations, such as Fire and Emergency Services, and are included here by agreement. Portable stations may be deployed to a location for a short period and their location may be subject to change without notice. Wind observations from these stations are provided from heights of either three (3) or ten (10) metres above ground level (AGL).

Data from the previous 72 hours. | See also: Recent months for locations in Queensland
Date/Time
EST
Temp
°C
App
Temp
°C
Dew
Point
°C
Rel
Hum
%
Delta-T
°C
Wind Press
QNH
hPa
Press
MSL
hPa
Rain since
9am
mm
Dir  Spd
km/h
Gust
km/h
Spd
kts
Gust
kts
29/01:10am 20.7 21.3 19.4 92 0.8 SE 15 22 8 12 - - 1.6
29/01:00am 20.8 21.4 19.5 92 0.8 SE 15 22 8 12 - - 1.6
29/12:50am 20.8 21.8 19.5 92 0.8 ESE 13 20 7 11 - - 1.6
29/12:40am 20.8 21.8 19.5 92 0.8 ESE 13 17 7 9 - - 1.6
29/12:30am 20.9 22.2 19.4 91 1.0 ESE 11 19 6 10 - - 1.6
29/12:20am 20.9 21.9 19.4 91 1.0 ESE 13 17 7 9 - - 1.6
29/12:10am 20.9 21.4 19.3 90 1.0 ESE 15 20 8 11 - - 1.6
29/12:00am 20.8 22.2 19.5 92 0.8 ESE 11 17 6 9 - - 1.6
 
Date/Time
EST
Temp
°C
App
Temp
°C
Dew
Point
°C
Rel
Hum
%
Delta-T
°C
Wind Press
QNH
hPa
Press
MSL
hPa
Rain since
9am
mm
Dir  Spd
km/h
Gust
km/h
Spd
kts
Gust
kts
28/11:50pm 20.8 22.2 19.6 93 0.8 ESE 11 19 6 10 - - 1.6
28/11:40pm 20.9 22.0 19.6 92 0.8 ESE 13 17 7 9 - - 1.6
28/11:30pm 20.9 21.5 19.5 92 0.9 ESE 15 19 8 10 - - 1.6
28/11:20pm 20.8 22.2 19.6 93 0.8 SE 11 17 6 9 - - 1.6
28/11:10pm 20.8 22.7 19.7 93 0.7 ESE 9 13 5 7 - - 1.6
28/11:00pm 20.7 22.6 19.7 94 0.7 ESE 9 13 5 7 - - 1.6
28/10:50pm 20.8 22.6 19.6 93 0.8 E 9 13 5 7 - - 1.6
28/10:40pm 20.8 22.6 19.5 92 0.8 E 9 13 5 7 - - 1.6
28/10:30pm 20.9 22.7 19.5 92 0.9 E 9 11 5 6 - - 1.6
28/10:20pm 20.9 21.9 19.5 92 0.9 E 13 19 7 10 - - 1.6
28/10:10pm 20.9 22.3 19.6 92 0.8 E 11 17 6 9 - - 1.6
28/10:00pm 21.0 22.2 19.8 93 0.8 E 13 17 7 9 - - 1.6
28/09:50pm 20.9 22.1 20.0 95 0.6 ESE 13 15 7 8 - - 1.6
28/09:40pm 20.9 22.2 20.2 96 0.5 E 13 17 7 9 - - 1.6
28/09:30pm 20.9 21.6 20.4 97 0.3 E 17 20 9 11 - - 1.6
28/09:20pm 21.1 22.6 20.6 97 0.3 ESE 13 19 7 10 - - 1.6
28/09:10pm 21.2 22.8 20.7 97 0.3 ESE 13 19 7 10 - - 1.6
28/09:00pm 21.3 22.9 20.8 97 0.3 ESE 13 17 7 9 - - 1.6
28/08:50pm 21.4 22.7 20.9 97 0.3 ESE 15 19 8 10 - - 1.6
28/08:40pm 21.4 22.3 20.9 97 0.3 ESE 17 22 9 12 - - 1.6
28/08:30pm 21.5 22.8 20.9 96 0.4 ESE 15 19 8 10 - - 1.6
28/08:20pm 21.5 22.4 20.9 96 0.4 ESE 17 20 9 11 - - 1.6
28/08:10pm 21.5 23.6 21.0 97 0.3 ESE 11 19 6 10 - - 1.6
28/08:00pm 21.5 22.8 20.9 96 0.4 E 15 24 8 13 - - 1.6
28/07:50pm 21.6 22.6 21.0 96 0.4 ESE 17 22 9 12 - - 1.6
28/07:40pm 21.7 23.5 21.1 96 0.4 ESE 13 17 7 9 - - 1.6
28/07:30pm 21.7 23.9 21.1 96 0.4 ESE 11 17 6 9 - - 1.6
28/07:20pm 21.7 23.1 21.1 96 0.4 E 15 19 8 10 - - 1.6
28/07:10pm 21.8 23.2 21.1 96 0.5 ESE 15 19 8 10 - - 1.6
28/07:00pm 21.9 23.7 21.2 96 0.5 ESE 13 19 7 10 - - 1.6
28/06:50pm 21.9 23.7 21.1 95 0.5 ESE 13 19 7 10 - - 1.6
28/06:40pm 22.0 23.7 21.0 94 0.7 E 13 17 7 9 - - 1.6
28/06:30pm 22.0 23.6 20.7 92 0.9 E 13 15 7 8 - - 1.6
28/06:20pm 22.0 23.9 20.6 92 0.9 E 11 15 6 8 - - 1.6
28/06:10pm 22.1 23.9 20.4 90 1.1 E 11 13 6 7 - - 1.6
28/06:00pm 22.3 24.0 20.2 88 1.4 E 11 13 6 7 - - 1.6
28/05:50pm 22.3 23.8 19.8 86 1.6 E 11 15 6 8 - - 1.6
28/05:40pm 22.4 23.4 19.5 84 1.9 E 13 15 7 8 - - 1.6
28/05:30pm 22.3 23.3 19.5 84 1.8 E 13 15 7 8 - - 1.6
28/05:20pm 22.3 23.5 19.8 86 1.6 E 13 17 7 9 - - 1.6
28/05:10pm 22.3 23.5 19.8 86 1.6 E 13 15 7 8 - - 1.6
28/05:00pm 22.3 23.5 19.9 86 1.6 E 13 15 7 8 - - 1.6
28/04:50pm 22.2 23.4 20.0 87 1.4 E 13 15 7 8 - - 1.6
28/04:40pm 22.2 23.3 19.7 86 1.6 E 13 17 7 9 - - 1.6
28/04:30pm 22.1 23.7 19.9 87 1.4 E 11 15 6 8 - - 1.6
28/04:20pm 22.1 23.4 20.1 88 1.3 - 13 15 7 8 - - 1.6
28/04:10pm 22.1 23.9 20.3 89 1.2 E 11 15 6 8 - - 1.6
28/04:00pm 22.0 23.0 20.2 89 1.2 ESE 15 17 8 9 - - 1.6
28/03:50pm 21.9 22.5 20.3 91 1.1 ESE 17 19 9 10 - - 1.6
28/03:40pm 21.9 23.0 20.4 91 1.0 ESE 15 17 8 9 - - 1.6
28/03:30pm 21.9 22.8 20.1 89 1.2 ESE 15 19 8 10 - - 1.6
28/03:20pm 21.8 23.1 20.1 90 1.1 ESE 13 15 7 8 - - 1.6
28/03:10pm 21.9 23.4 20.5 92 0.9 ESE 13 15 7 8 - - 1.6
28/03:00pm 21.9 23.2 20.2 90 1.1 ESE 13 17 7 9 - - 1.6
28/02:50pm 21.8 23.5 20.2 91 1.1 E 11 15 6 8 - - 1.6
28/02:40pm 21.8 23.6 20.3 91 1.0 E 11 13 6 7 - - 1.6
28/02:30pm 22.0 23.4 20.3 90 1.1 ESE 13 17 7 9 - - 1.6
28/02:20pm 22.1 24.3 20.4 90 1.1 ESE 9 11 5 6 - - 1.6
28/02:10pm 22.1 24.7 20.5 91 1.1 E 7 11 4 6 - - 1.6
28/02:00pm 22.3 25.6 20.7 91 1.1 WSW 4 6 2 3 - - 1.6
28/01:50pm 22.7 25.7 20.8 89 1.3 SSW 6 7 3 4 - - 1.4
28/01:40pm 23.3 24.8 20.6 85 1.8 SE 13 17 7 9 - - 0.6
28/01:30pm 24.3 26.0 20.1 77 2.8 ESE 11 13 6 7 - - 0.0
28/01:20pm 25.0 26.2 19.8 73 3.4 ESE 13 19 7 10 - - 0.0
28/01:10pm 25.4 26.7 20.2 73 3.5 E 13 17 7 9 - - 0.0
28/01:00pm 25.2 26.5 20.1 73 3.4 E 13 15 7 8 - - 0.0
28/12:50pm 25.5 27.2 20.2 72 3.5 E 11 17 6 9 - - 0.0
28/12:40pm 25.5 26.7 20.0 71 3.6 E 13 17 7 9 - - 0.0
28/12:30pm 26.2 28.9 20.7 71 3.7 ENE 7 13 4 7 - - 0.0
28/12:20pm 25.8 28.5 20.2 71 3.7 E 6 11 3 6 - - 0.0
28/12:10pm 25.4 28.5 20.3 73 3.4 ESE 4 7 2 4 - - 0.0
28/12:00pm 25.5 28.2 20.3 73 3.5 ENE 6 9 3 5 - - 0.0
28/11:50am 25.6 28.3 20.3 72 3.5 ENE 6 7 3 4 - - 0.0
28/11:40am 25.0 28.0 20.1 74 3.2 NE 4 6 2 3 - - 0.0
28/11:30am 25.3 28.4 20.2 73 3.4 NNE 4 7 2 4 - - 0.0
28/11:20am 25.9 28.8 20.6 72 3.5 NE 6 7 3 4 - - 0.0
28/11:10am 25.4 28.0 20.0 72 3.6 E 6 9 3 5 - - 0.0
28/11:00am 25.5 28.9 20.2 72 3.5 S 2 2 1 1 - - 0.0
28/10:50am 24.9 27.3 20.1 74 3.2 E 7 7 4 4 - - 0.0
28/10:40am 24.9 27.7 20.4 76 3.0 ESE 6 9 3 5 - - 0.0
28/10:30am 25.1 28.5 20.1 74 3.3 E 2 6 1 3 - - 0.0
28/10:20am 24.6 27.5 20.6 78 2.7 SE 6 9 3 5 - - 0.0
28/10:10am 25.1 28.3 20.4 75 3.1 E 4 7 2 4 - - 0.0
28/10:00am 26.0 29.1 20.2 70 3.9 ESE 4 7 2 4 - - 0.0
28/09:50am 25.7 27.8 18.1 63 4.9 SW 4 7 2 4 - - 0.0
28/09:40am 25.4 27.5 18.2 64 4.6 SSW 4 7 2 4 - - 0.0
28/09:30am 24.7 27.4 19.4 72 3.5 E 4 7 2 4 - - 0.0
28/09:20am 24.4 26.8 19.7 75 3.1 ESE 6 9 3 5 - - 0.0
28/09:10am 24.4 26.8 20.0 76 2.9 ESE 7 9 4 5 - - 0.0
28/09:00am 24.2 26.3 19.0 72 3.4 ESE 6 9 3 5 - - 3.4
28/08:50am 24.1 26.4 19.8 77 2.8 ESE 7 9 4 5 - - 3.4
28/08:40am 24.4 26.8 19.6 74 3.2 E 6 9 3 5 - - 3.4
28/08:30am 24.2 26.4 18.3 69 3.8 ESE 4 6 2 3 - - 3.4
28/08:20am 23.9 26.5 20.1 79 2.5 E 6 9 3 5 - - 3.4
28/08:10am 23.8 25.9 18.1 70 3.7 SSW 4 6 2 3 - - 3.4
28/08:00am 23.4 25.3 17.7 70 3.6 SW 4 6 2 3 - - 3.4
28/07:50am 23.1 24.7 17.9 72 3.3 SSW 6 6 3 3 - - 3.4
28/07:40am 22.9 24.7 18.2 75 3.0 SSW 6 7 3 4 - - 3.4
28/07:30am 22.5 24.3 18.3 77 2.7 SSW 6 7 3 4 - - 3.4
28/07:20am 22.0 23.8 18.3 79 2.4 SW 6 9 3 5 - - 3.4
28/07:10am 21.6 23.3 18.4 82 2.0 SW 7 9 4 5 - - 3.4
28/07:00am 21.0 21.9 18.5 85 1.6 SW 11 13 6 7 - - 3.4
28/06:50am 20.2 22.0 19.5 96 0.5 SW 9 11 5 6 - - 3.4
28/06:40am 19.7 21.8 19.4 98 0.2 SW 7 9 4 5 - - 3.4
28/06:30am 19.5 21.5 19.2 98 0.2 SSW 7 11 4 6 - - 3.4
28/06:20am 19.4 21.0 19.1 98 0.2 SW 9 11 5 6 - - 3.4
28/06:10am 19.3 21.2 19.0 98 0.2 SW 7 11 4 6 - - 3.4
28/06:00am 19.2 21.1 19.0 99 0.1 WSW 7 9 4 5 - - 3.4
28/05:50am 19.1 21.2 18.9 99 0.1 WSW 6 7 3 4 - - 3.4
28/05:40am 19.2 21.1 18.9 98 0.2 WSW 7 7 4 4 - - 3.4
28/05:30am 19.3 21.3 19.1 99 0.1 WSW 7 9 4 5 - - 3.4
28/05:20am 19.3 20.9 19.1 99 0.1 WSW 9 9 5 5 - - 3.4
28/05:10am 19.4 21.0 19.1 98 0.2 WSW 9 11 5 6 - - 3.4
28/05:00am 19.5 21.1 19.2 98 0.2 WSW 9 11 5 6 - - 3.4
28/04:50am 19.6 21.3 19.3 98 0.2 WSW 9 11 5 6 - - 3.4
28/04:40am 19.6 20.9 19.3 98 0.2 WSW 11 13 6 7 - - 3.4
28/04:30am 19.5 20.8 19.2 98 0.2 WSW 11 13 6 7 - - 3.4
28/04:20am 19.5 21.1 19.2 98 0.2 WSW 9 11 5 6 - - 3.4
28/04:10am 19.5 21.1 19.2 98 0.2 W 9 11 5 6 - - 3.4
28/04:00am 19.4 21.0 19.1 98 0.2 W 9 11 5 6 - - 3.4
28/03:50am 19.5 21.1 19.1 98 0.3 W 9 9 5 5 - - 3.4
28/03:40am 19.6 21.6 19.2 98 0.3 WSW 7 9 4 5 - - 3.4
28/03:30am 19.6 21.8 19.2 98 0.3 W 6 7 3 4 - - 3.4
28/03:20am 19.7 21.9 19.2 97 0.3 W 6 7 3 4 - - 3.4
28/03:10am 19.6 21.6 19.2 98 0.3 WSW 7 9 4 5 - - 3.4
28/03:00am 19.6 21.6 19.1 97 0.3 W 7 11 4 6 - - 3.4
28/02:50am 19.3 21.1 18.8 97 0.3 WSW 7 7 4 4 - - 3.4
28/02:40am 19.3 21.1 18.7 96 0.4 WSW 7 7 4 4 - - 3.4
28/02:30am 19.3 21.1 18.7 96 0.4 SW 7 9 4 5 - - 3.4
28/02:20am 19.1 20.8 18.5 96 0.4 SW 7 7 4 4 - - 3.4
28/02:10am 19.2 20.9 18.5 96 0.4 SSW 7 7 4 4 - - 3.4
28/02:00am 19.1 20.8 18.5 96 0.4 SW 7 7 4 4 - - 3.4
28/01:50am 19.1 21.0 18.5 96 0.4 SW 6 7 3 4 - - 3.4
28/01:40am 19.1 20.8 18.5 96 0.4 SW 7 7 4 4 - - 3.4
28/01:30am 19.2 21.1 18.6 96 0.4 SSW 6 9 3 5 - - 3.4
28/01:20am 19.0 20.7 18.4 96 0.4 SW 7 9 4 5 - - 3.2
28/01:10am 19.0 20.8 18.4 96 0.4 SW 6 7 3 4 - - 3.2
28/01:00am 18.8 20.6 18.2 96 0.4 SW 6 7 3 4 - - 3.2
28/12:50am 18.6 20.2 17.9 96 0.4 SSW 6 6 3 3 - - 3.2
28/12:40am 18.7 21.1 18.0 96 0.4 SSE 2 6 1 3 - - 3.2
28/12:30am 18.1 20.2 17.2 94 0.6 SW 2 4 1 2 - - 3.2
28/12:20am 18.1 19.4 17.2 94 0.6 SSW 6 6 3 3 - - 3.2
28/12:10am 18.1 19.8 17.1 94 0.6 S 4 6 2 3 - - 3.2
28/12:00am 18.2 20.0 17.3 94 0.6 ESE 4 4 2 2 - - 3.2
 
Date/Time
EST
Temp
°C
App
Temp
°C
Dew
Point
°C
Rel
Hum
%
Delta-T
°C
Wind Press
QNH
hPa
Press
MSL
hPa
Rain since
9am
mm
Dir  Spd
km/h
Gust
km/h
Spd
kts
Gust
kts
27/11:50pm 18.1 20.2 17.2 94 0.6 SSE 2 4 1 2 - - 3.2
27/11:40pm 18.4 20.9 17.3 93 0.7 CALM 0 2 0 1 - - 3.2
27/11:30pm 18.6 20.8 17.4 93 0.7 SE 2 4 1 2 - - 3.2
27/11:20pm 18.8 21.4 17.5 92 0.8 CALM 0 0 0 0 - - 3.2
27/11:10pm 19.0 21.1 17.3 90 1.1 SSE 2 6 1 3 - - 3.2
27/11:00pm 18.7 20.0 17.5 93 0.7 SE 7 7 4 4 - - 3.2
27/10:50pm 18.8 20.5 18.0 95 0.5 SSE 6 6 3 3 - - 3.2
27/10:40pm 19.2 21.4 18.4 95 0.5 SSW 4 6 2 3 - - 3.2
27/10:30pm 19.2 21.4 18.4 95 0.5 SW 4 6 2 3 - - 3.2
27/10:20pm 19.3 21.5 18.4 94 0.6 SSW 4 9 2 5 - - 3.2
27/10:10pm 19.5 21.4 18.6 94 0.6 S 6 7 3 4 - - 3.2
27/10:00pm 19.5 21.4 18.5 94 0.6 SSW 6 7 3 4 - - 3.2
27/09:50pm 19.7 21.6 18.6 93 0.7 SSE 6 6 3 3 - - 3.2
27/09:40pm 19.7 21.4 18.6 93 0.7 SSE 7 7 4 4 - - 3.2
27/09:30pm 19.8 21.7 18.6 93 0.8 SSE 6 6 3 3 - - 3.2
27/09:20pm 19.8 21.5 18.6 93 0.8 SE 7 9 4 5 - - 3.2
27/09:10pm 19.8 21.1 18.5 92 0.8 ESE 9 9 5 5 - - 3.2
27/09:00pm 20.0 21.7 18.5 91 1.0 ESE 7 9 4 5 - - 3.2
27/08:50pm 19.9 21.2 18.5 92 0.9 E 9 11 5 6 - - 3.2
27/08:40pm 19.9 21.6 18.5 92 0.9 E 7 9 4 5 - - 3.2
27/08:30pm 19.8 21.5 18.6 93 0.8 E 7 9 4 5 - - 3.2
27/08:20pm 19.7 21.4 18.6 93 0.7 E 7 7 4 4 - - 3.2
27/08:10pm 19.6 21.6 18.7 94 0.6 ESE 6 6 3 3 - - 3.2
27/08:00pm 19.5 21.3 18.8 96 0.4 SE 7 9 4 5 - - 3.2
27/07:50pm 19.4 21.5 18.9 97 0.3 SE 6 7 3 4 - - 3.2
27/07:40pm 19.4 21.9 19.0 98 0.3 SSE 4 6 2 3 - - 3.2
27/07:30pm 19.5 21.7 19.1 98 0.3 SSE 6 7 3 4 - - 3.2
27/07:20pm 19.4 21.0 19.2 99 0.1 SE 9 11 5 6 - - 3.2
27/07:10pm 19.4 20.6 19.1 98 0.2 SSE 11 13 6 7 - - 3.2
27/07:00pm 19.4 20.7 19.2 99 0.1 SSE 11 13 6 7 - - 3.2
27/06:50pm 19.5 20.8 19.3 99 0.1 SE 11 13 6 7 - - 3.2
27/06:40pm 19.6 21.3 19.4 99 0.1 SE 9 9 5 5 - - 3.2
27/06:30pm 19.7 21.9 19.5 99 0.1 SE 7 7 4 4 - - 3.2
27/06:20pm 19.9 22.1 19.7 99 0.1 ESE 7 9 4 5 - - 3.2
27/06:10pm 20.0 21.5 19.8 99 0.1 ESE 11 13 6 7 - - 3.2
27/06:00pm 20.1 21.3 19.9 99 0.1 E 13 17 7 9 - - 3.2
27/05:50pm 20.2 21.4 20.0 99 0.1 E 13 15 7 8 - - 3.2
27/05:40pm 20.3 22.0 20.1 99 0.1 ESE 11 17 6 9 - - 3.2
27/05:30pm 20.4 21.3 20.1 98 0.2 ESE 15 19 8 10 - - 3.2
27/05:20pm 20.3 21.2 20.0 98 0.2 - 15 19 8 10 - - 3.2
27/05:10pm 20.3 20.8 20.0 98 0.2 E 17 20 9 11 - - 3.2
27/05:00pm 20.3 21.2 20.0 98 0.2 E 15 20 8 11 - - 3.2
27/04:50pm 20.3 21.5 20.0 98 0.2 E 13 15 7 8 - - 3.2
27/04:40pm 20.5 21.4 20.1 98 0.3 E 15 17 8 9 - - 3.2
27/04:30pm 20.6 21.9 20.2 98 0.3 E 13 20 7 11 - - 3.2
27/04:20pm 20.8 22.2 20.3 97 0.3 E 13 19 7 10 - - 3.2
27/04:10pm 20.8 21.8 20.3 97 0.3 E 15 19 8 10 - - 3.0
27/04:00pm 20.9 21.0 20.3 96 0.4 E 20 24 11 13 - - 2.0
27/03:50pm 21.6 23.6 20.8 95 0.5 E 11 20 6 11 - - 1.6
27/03:40pm 21.6 22.8 20.7 95 0.6 E 15 20 8 11 - - 1.6
27/03:30pm 21.6 22.8 20.7 95 0.6 E 15 19 8 10 - - 0.4
27/03:20pm 21.8 23.8 20.8 94 0.7 E 11 15 6 8 - - 0.4
27/03:10pm 21.7 23.2 20.6 93 0.7 E 13 17 7 9 - - 0.4
27/03:00pm 21.8 23.3 20.6 93 0.8 - 13 17 7 9 - - 0.4
27/02:50pm 21.5 22.5 20.2 92 0.9 E 15 19 8 10 - - 0.4
27/02:40pm 21.7 22.6 20.0 90 1.1 E 15 17 8 9 - - 0.4
27/02:30pm 21.7 22.9 20.0 90 1.1 E 13 15 7 8 - - 0.4
27/02:20pm 21.2 22.7 19.7 91 1.0 E 11 13 6 7 - - 0.4
27/02:10pm 20.9 21.9 19.4 91 1.0 E 13 15 7 8 - - 0.4
27/02:00pm 21.1 22.4 19.4 90 1.1 E 11 15 6 8 - - 0.4
27/01:50pm 21.2 22.9 19.3 89 1.2 E 9 11 5 6 - - 0.4
27/01:40pm 21.1 22.7 19.2 89 1.2 E 9 11 5 6 - - 0.4
27/01:30pm 21.0 21.9 18.5 85 1.6 E 11 13 6 7 - - 0.4
27/01:20pm 21.0 21.2 17.7 81 2.1 E 13 15 7 8 - - 0.4
27/01:10pm 21.2 21.3 18.4 84 1.8 E 15 19 8 10 - - 0.4
27/01:00pm 21.5 21.9 19.0 86 1.6 E 15 17 8 9 - - 0.4
27/12:50pm 21.9 21.7 19.4 86 1.6 E 19 26 10 14 - - 0.4
27/12:40pm 23.7 24.1 19.1 75 3.0 E 15 20 8 11 - - 0.4
27/12:30pm 24.0 25.0 20.3 80 2.5 ESE 15 17 8 9 - - 0.4
27/12:20pm 24.6 27.8 21.7 84 2.0 ESE 7 13 4 7 - - 0.4
27/12:10pm 25.6 29.1 21.8 79 2.6 S 6 7 3 4 - - 0.4
27/12:00pm 24.7 27.7 21.9 84 1.9 WNW 9 11 5 6 - - 0.4
27/11:50am 24.9 27.4 21.8 83 2.1 W 11 15 6 8 - - 0.4
27/11:40am 24.4 27.0 21.9 86 1.7 W 11 17 6 9 - - 0.4
27/11:30am 23.8 27.0 21.7 88 1.4 WSW 7 11 4 6 - - 0.4
27/11:20am 23.8 27.3 22.1 90 1.2 WSW 7 11 4 6 - - 0.4
27/11:10am 24.3 27.5 22.3 88 1.4 WSW 9 11 5 6 - - 0.4
27/11:00am 23.9 27.1 21.6 87 1.6 SW 7 9 4 5 - - 0.4
27/10:50am 23.5 26.8 21.9 91 1.1 WSW 7 11 4 6 - - 0.4
27/10:40am 23.5 27.5 22.0 91 1.0 W 4 6 2 3 - - 0.4
27/10:30am 23.3 26.8 22.1 93 0.8 W 7 9 4 5 - - 0.4
27/10:20am 23.6 27.2 22.3 92 0.9 W 7 11 4 6 - - 0.2
27/10:10am 23.5 27.5 22.1 92 0.9 SW 4 6 2 3 - - 0.2
27/10:00am 23.2 27.5 22.0 93 0.8 NNE 2 4 1 2 - - 0.2
27/09:50am 23.1 27.3 21.8 92 0.9 WNW 2 6 1 3 - - 0.0
27/09:40am 23.2 26.7 21.8 92 0.9 W 6 9 3 5 - - 0.0
27/09:30am 23.5 27.0 21.8 90 1.1 W 6 7 3 4 - - 0.0
27/09:20am 23.5 27.4 21.2 87 1.5 N 2 6 1 3 - - 0.0
27/09:10am 23.3 27.7 21.4 89 1.3 CALM 0 4 0 2 - - 0.0
27/09:00am 23.0 26.9 21.2 89 1.2 E 2 4 1 2 - - 0.0
27/08:50am 22.7 27.1 21.4 92 0.9 CALM 0 2 0 1 - - 0.0
27/08:40am 22.5 25.8 21.4 93 0.7 SW 6 7 3 4 - - 0.0
27/08:30am 22.3 25.4 21.4 95 0.6 WNW 7 9 4 5 - - 0.0
27/08:20am 22.2 25.6 21.7 97 0.3 NW 6 7 3 4 - - 0.0
27/08:10am 22.2 26.1 21.9 98 0.2 E 4 6 2 3 - - 0.0
27/08:00am 21.9 25.3 21.6 98 0.2 WSW 6 9 3 5 - - 0.0
27/07:50am 21.8 24.2 21.5 98 0.2 W 11 13 6 7 - - 0.0
27/07:40am 21.9 24.7 21.6 98 0.2 W 9 13 5 7 - - 0.0
27/07:30am 22.0 24.9 21.7 98 0.2 W 9 11 5 6 - - 0.0
27/07:20am 21.8 24.6 21.5 98 0.2 W 9 9 5 5 - - 0.0
27/07:10am 21.7 24.8 21.4 98 0.2 WNW 7 9 4 5 - - 0.0
27/07:00am 21.5 24.2 21.3 99 0.1 W 9 11 5 6 - - 0.0
27/06:50am 21.5 24.1 21.2 98 0.2 W 9 13 5 7 - - 0.0
27/06:40am 21.5 23.8 21.3 99 0.1 W 11 13 6 7 - - 0.0
27/06:30am 21.6 23.9 21.3 98 0.2 W 11 13 6 7 - - 0.0
27/06:20am 21.6 23.1 21.3 98 0.2 W 15 19 8 10 - - 0.0
27/06:10am 21.6 22.3 21.2 98 0.3 W 19 20 10 11 - - 0.0
27/06:00am 21.5 22.2 21.2 98 0.2 W 19 22 10 12 - - 0.0
27/05:50am 21.6 22.3 21.2 98 0.3 W 19 22 10 12 - - 0.0
27/05:40am 21.6 22.7 21.2 98 0.3 W 17 19 9 10 - - 0.0
27/05:30am 21.6 22.6 21.1 97 0.3 W 17 19 9 10 - - 0.0
27/05:20am 21.5 23.2 21.0 97 0.3 W 13 17 7 9 - - 0.0
27/05:10am 21.4 23.5 20.9 97 0.3 WNW 11 13 6 7 - - 0.0
27/05:00am 21.4 23.4 20.8 96 0.4 NW 11 13 6 7 - - 0.0
27/04:50am 21.2 23.9 20.7 97 0.3 WNW 7 11 4 6 - - 0.0
27/04:40am 21.1 24.0 20.6 97 0.3 WNW 6 7 3 4 - - 0.0
27/04:30am 21.1 24.0 20.6 97 0.3 WNW 6 7 3 4 - - 0.0
27/04:20am 21.2 23.5 20.7 97 0.3 WNW 9 11 5 6 - - 0.0
27/04:10am 21.3 22.9 20.8 97 0.3 NW 13 15 7 8 - - 0.0
27/04:00am 21.2 22.8 20.8 98 0.3 NW 13 13 7 7 - - 0.0
27/03:50am 21.1 22.7 20.8 98 0.2 NW 13 15 7 8 - - 0.0
27/03:40am 21.1 22.7 20.8 98 0.2 NW 13 15 7 8 - - 0.0
27/03:30am 21.3 23.1 21.1 99 0.1 NW 13 15 7 8 - - 0.0
27/03:20am 21.5 23.3 21.2 98 0.2 NW 13 15 7 8 - - 0.0
27/03:10am 21.5 23.8 21.3 99 0.1 NW 11 13 6 7 - - 0.0
27/03:00am 21.5 23.7 21.2 98 0.2 NW 11 11 6 6 - - 0.0
27/02:50am 21.5 24.2 21.3 99 0.1 NW 9 9 5 5 - - 0.0
27/02:40am 21.5 24.5 21.3 99 0.1 NW 7 9 4 5 - - 0.0
27/02:30am 21.6 24.6 21.3 98 0.2 NW 7 11 4 6 - - 0.0
27/02:20am 21.6 24.7 21.4 99 0.1 NNW 7 9 4 5 - - 0.0
27/02:10am 21.6 24.6 21.3 98 0.2 NW 7 9 4 5 - - 0.0
27/02:00am 21.6 25.3 21.4 99 0.1 NW 4 7 2 4 - - 0.0
27/01:50am 21.7 25.0 21.5 99 0.1 N 6 7 3 4 - - 0.0
27/01:40am 21.7 25.0 21.4 98 0.2 NNW 6 7 3 4 - - 0.0
27/01:30am 21.6 24.8 21.3 98 0.2 NW 6 6 3 3 - - 0.0
27/01:20am 21.6 24.8 21.3 98 0.2 NW 6 6 3 3 - - 0.0
27/01:10am 21.5 24.7 21.2 98 0.2 NNW 6 6 3 3 - - 0.0
27/01:00am 21.5 25.1 21.2 98 0.2 N 4 7 2 4 - - 0.0
27/12:50am 21.4 25.7 21.1 98 0.2 CALM 0 0 0 0 - - 0.0
27/12:40am 21.5 25.8 21.2 98 0.2 CALM 0 0 0 0 - - 0.0
27/12:30am 21.6 26.0 21.3 98 0.2 CALM 0 0 0 0 - - 0.0
27/12:20am 21.7 25.4 21.4 98 0.2 S 4 6 2 3 - - 0.0
27/12:10am 21.7 25.4 21.4 98 0.2 ENE 4 7 2 4 - - 0.0
27/12:00am 21.7 25.4 21.4 98 0.2 N 4 7 2 4 - - 0.0
 
Date/Time
EST
Temp
°C
App
Temp
°C
Dew
Point
°C
Rel
Hum
%
Delta-T
°C
Wind Press
QNH
hPa
Press
MSL
hPa
Rain since
9am
mm
Dir  Spd
km/h
Gust
km/h
Spd
kts
Gust
kts
26/11:50pm 21.7 25.4 21.4 98 0.2 NW 4 6 2 3 - - 0.0
26/11:40pm 21.7 25.7 21.4 98 0.2 WNW 2 4 1 2 - - 0.0
26/11:30pm 21.6 26.0 21.3 98 0.2 CALM 0 2 0 1 - - 0.0
26/11:20pm 21.7 26.1 21.4 98 0.2 CALM 0 2 0 1 - - 0.0
26/11:10pm 21.7 25.7 21.4 98 0.2 N 2 6 1 3 - - 0.0
26/11:00pm 21.7 25.7 21.4 98 0.2 N 2 4 1 2 - - 0.0
26/10:50pm 21.7 25.7 21.4 98 0.2 N 2 4 1 2 - - 0.0
26/10:40pm 21.7 25.3 21.3 98 0.3 N 4 6 2 3 - - 0.0
26/10:30pm 21.7 24.9 21.3 98 0.3 W 6 6 3 3 - - 0.0
26/10:20pm 21.6 25.6 21.3 98 0.2 NW 2 4 1 2 - - 0.0
26/10:10pm 21.7 25.7 21.3 98 0.3 N 2 6 1 3 - - 0.0
26/10:00pm 21.7 25.3 21.3 98 0.3 N 4 7 2 4 - - 0.0
26/09:50pm 21.6 24.8 21.2 98 0.3 N 6 7 3 4 - - 0.0
26/09:40pm 21.5 25.1 21.2 98 0.2 N 4 6 2 3 - - 0.0
26/09:30pm 21.5 25.0 21.1 98 0.3 N 4 6 2 3 - - 0.0
26/09:20pm 21.7 25.7 21.3 98 0.3 N 2 4 1 2 - - 0.0
26/09:10pm 21.7 26.1 21.3 98 0.3 CALM 0 2 0 1 - - 0.0
26/09:00pm 21.7 25.7 21.3 98 0.3 N 2 4 1 2 - - 0.0
26/08:50pm 21.7 25.7 21.4 98 0.2 N 2 4 1 2 - - 0.0
26/08:40pm 21.8 25.8 21.4 98 0.3 NNE 2 6 1 3 - - 0.0
26/08:30pm 21.8 25.9 21.5 98 0.2 NE 2 4 1 2 - - 0.0
26/08:20pm 21.9 26.0 21.5 98 0.3 N 2 4 1 2 - - 0.0
26/08:10pm 22.0 26.1 21.6 98 0.3 NNE 2 4 1 2 - - 0.0
26/08:00pm 22.0 25.8 21.6 98 0.3 ENE 4 6 2 3 - - 0.0
26/07:50pm 22.0 25.3 21.5 97 0.3 E 6 7 3 4 - - 0.0
26/07:40pm 22.0 25.1 21.5 97 0.3 E 7 9 4 5 - - 0.0
26/07:30pm 22.0 25.1 21.5 97 0.3 E 7 9 4 5 - - 0.0
26/07:20pm 21.9 25.2 21.4 97 0.3 ENE 6 7 3 4 - - 0.0
26/07:10pm 21.9 25.2 21.4 97 0.3 E 6 7 3 4 - - 0.0
26/07:00pm 21.9 25.1 21.3 96 0.4 ENE 6 7 3 4 - - 0.0
26/06:50pm 22.0 25.0 21.3 96 0.5 E 7 9 4 5 - - 0.0
26/06:40pm 22.0 25.0 21.3 96 0.5 - 7 9 4 5 - - 0.0
26/06:30pm 22.1 25.2 21.4 96 0.5 E 7 9 4 5 - - 0.0
26/06:20pm 22.2 24.9 21.4 95 0.5 E 9 11 5 6 - - 0.0
26/06:10pm 22.4 25.1 21.4 94 0.7 E 9 9 5 5 - - 0.0
26/06:00pm 22.5 25.6 21.5 94 0.7 E 7 9 4 5 - - 0.0
26/05:50pm 22.5 25.6 21.4 93 0.7 ENE 7 9 4 5 - - 0.0
26/05:40pm 22.6 25.8 21.6 94 0.7 E 7 9 4 5 - - 0.0
26/05:30pm 22.7 25.9 21.7 94 0.7 E 7 9 4 5 - - 0.0
26/05:20pm 22.7 25.9 21.7 94 0.7 ENE 7 11 4 6 - - 0.0
26/05:10pm 22.8 26.0 21.7 93 0.7 E 7 9 4 5 - - 0.0
26/05:00pm 22.9 26.4 21.8 93 0.7 E 6 7 3 4 - - 0.0
26/04:50pm 23.0 26.3 21.8 93 0.8 E 7 9 4 5 - - 0.0
26/04:40pm 23.1 26.6 21.8 92 0.9 E 6 9 3 5 - - 0.0
26/04:30pm 23.2 26.4 21.7 91 1.0 E 7 11 4 6 - - 0.0
26/04:20pm 23.3 26.2 21.7 91 1.1 E 9 11 5 6 - - 0.0
26/04:10pm 23.4 25.8 21.6 90 1.2 E 11 13 6 7 - - 0.0
26/04:00pm 23.6 26.4 21.6 88 1.3 ENE 9 13 5 7 - - 0.0
26/03:50pm 23.9 26.4 21.7 87 1.5 E 11 13 6 7 - - 0.0
26/03:40pm 24.0 26.5 21.7 87 1.6 ESE 11 11 6 6 - - 0.0
26/03:30pm 24.1 27.0 21.8 87 1.6 E 9 11 5 6 - - 0.0
26/03:20pm 24.0 27.2 21.7 87 1.6 ENE 7 11 4 6 - - 0.0
26/03:10pm 24.1 26.9 21.5 85 1.8 ENE 9 13 5 7 - - 0.0
26/03:00pm 24.7 27.6 21.8 84 2.0 ENE 9 11 5 6 - - 0.0
26/02:50pm 25.0 27.9 21.7 82 2.2 E 9 11 5 6 - - 0.0
26/02:40pm 24.7 27.5 21.6 83 2.1 E 9 11 5 6 - - 0.0
26/02:30pm 24.6 28.0 22.0 85 1.8 E 7 11 4 6 - - 0.0
26/02:20pm 23.6 26.7 21.5 88 1.4 E 7 11 4 6 - - 0.0
26/02:10pm 23.7 25.9 21.2 86 1.7 E 11 13 6 7 - - 0.0
26/02:00pm 23.7 26.1 21.6 88 1.4 E 11 15 6 8 - - 0.0
26/01:50pm 23.8 26.2 21.6 87 1.5 E 11 13 6 7 - - 0.0
26/01:40pm 23.5 25.8 21.4 88 1.4 E 11 13 6 7 - - 0.0
26/01:30pm 23.7 26.0 21.3 86 1.6 E 11 13 6 7 - - 0.0
26/01:20pm 24.0 27.0 21.2 84 1.9 E 7 11 4 6 - - 0.0
26/01:10pm 24.1 27.1 21.2 84 1.9 E 7 11 4 6 - - 0.0
26/01:00pm 23.9 26.4 21.1 84 1.9 E 9 13 5 7 - - 0.0
26/12:50pm 23.8 26.2 20.9 84 1.9 - 9 13 5 7 - - 0.0
26/12:40pm 23.9 26.3 20.9 83 2.0 E 9 11 5 6 - - 0.0
26/12:30pm 24.4 27.2 20.9 81 2.3 ESE 7 9 4 5 - - 0.0
26/12:20pm 24.8 28.0 21.2 80 2.4 ESE 6 7 3 4 - - 0.0
26/12:10pm 25.0 28.1 21.0 78 2.7 ENE 6 7 3 4 - - 0.0
26/12:00pm 25.5 28.9 20.9 75 3.1 NE 4 9 2 5 - - 0.0
26/11:50am 25.2 28.1 19.9 72 3.5 NNE 4 6 2 3 - - 0.0
26/11:40am 24.1 28.0 20.4 80 2.5 CALM 0 2 0 1 - - 0.0
26/11:30am 23.7 27.4 20.0 80 2.4 CALM 0 2 0 1 - - 0.0
26/11:20am 23.4 26.4 20.1 82 2.2 SE 4 6 2 3 - - 0.0
26/11:10am 23.4 26.2 20.4 83 2.0 SE 6 9 3 5 - - 0.0
26/11:00am 23.5 26.8 20.7 84 1.9 ESE 4 7 2 4 - - 0.0
26/10:50am 23.7 26.9 20.6 83 2.1 ENE 4 9 2 5 - - 0.0
26/10:40am 23.6 26.3 20.3 82 2.2 ENE 6 9 3 5 - - 0.0
26/10:30am 23.5 26.2 20.6 84 1.9 E 7 11 4 6 - - 0.0
26/10:20am 23.7 26.3 20.4 82 2.2 E 7 11 4 6 - - 0.0
26/10:10am 23.1 25.8 20.7 86 1.6 E 7 11 4 6 - - 0.0
26/10:00am 22.7 25.2 20.3 86 1.6 E 7 9 4 5 - - 0.0
26/09:50am 22.6 25.3 20.3 87 1.5 E 6 7 3 4 - - 0.0
26/09:40am 22.5 25.2 20.3 87 1.5 E 6 7 3 4 - - 0.0
26/09:30am 22.7 26.3 20.5 87 1.5 NE 2 6 1 3 - - 0.0
26/09:20am 23.0 25.8 20.4 85 1.7 ENE 6 9 3 5 - - 0.0
26/09:10am 23.3 26.3 20.1 82 2.1 NE 4 6 2 3 - - 0.0
26/09:00am 22.9 25.7 19.7 82 2.1 ENE 4 7 2 4 - - 0.8
26/08:50am 22.5 24.9 20.1 86 1.6 E 7 11 4 6 - - 0.8
26/08:40am 22.3 24.7 20.1 87 1.4 E 7 9 4 5 - - 0.8
26/08:30am 22.4 25.0 20.1 87 1.5 ENE 6 7 3 4 - - 0.8
26/08:20am 22.7 25.7 20.0 85 1.8 NNE 4 6 2 3 - - 0.8
26/08:10am 22.5 25.7 20.4 88 1.4 ENE 4 11 2 6 - - 0.8
26/08:00am 22.2 24.3 20.1 88 1.4 E 9 13 5 7 - - 0.8
26/07:50am 22.3 24.6 19.9 86 1.6 E 7 13 4 7 - - 0.8
26/07:40am 22.7 25.3 20.0 85 1.8 E 6 9 3 5 - - 0.8
26/07:30am 22.3 25.3 20.0 87 1.5 E 4 7 2 4 - - 0.8
26/07:20am 21.7 24.5 20.4 92 0.9 ESE 6 7 3 4 - - 0.8
26/07:10am 21.2 23.8 20.5 96 0.5 E 7 9 4 5 - - 0.8
26/07:00am 20.8 23.4 20.5 98 0.2 E 7 9 4 5 - - 0.8
26/06:50am 20.4 22.8 20.1 98 0.2 E 7 7 4 4 - - 0.8
26/06:40am 20.2 22.7 19.9 98 0.2 E 6 7 3 4 - - 0.8
26/06:30am 20.1 23.0 19.8 98 0.2 E 4 4 2 2 - - 0.8
26/06:20am 19.6 22.2 19.3 98 0.2 E 4 4 2 2 - - 0.8
26/06:10am 19.0 21.7 18.7 98 0.2 ENE 2 4 1 2 - - 0.8
26/06:00am 18.8 21.8 18.4 98 0.3 CALM 0 0 0 0 - - 0.8
26/05:50am 19.1 22.3 18.9 99 0.1 CALM 0 0 0 0 - - 0.8
26/05:40am 18.9 22.0 18.6 98 0.2 CALM 0 0 0 0 - - 0.8
26/05:30am 18.8 21.8 18.5 98 0.2 CALM 0 2 0 1 - - 0.8
26/05:20am 19.1 21.5 18.7 98 0.3 E 4 4 2 2 - - 0.8
26/05:10am 19.3 21.4 18.9 98 0.3 E 6 6 3 3 - - 0.8
26/05:00am 19.5 22.4 19.1 98 0.3 E 2 4 1 2 - - 0.8
26/04:50am 19.6 22.6 19.3 98 0.2 E 2 4 1 2 - - 0.8
26/04:40am 19.5 22.8 19.2 98 0.2 CALM 0 2 0 1 - - 0.8
26/04:30am 19.4 22.7 19.1 98 0.2 CALM 0 2 0 1 - - 0.8
26/04:20am 19.7 22.8 19.4 98 0.2 E 2 4 1 2 - - 0.8
26/04:10am 19.7 22.7 19.3 98 0.3 E 2 4 1 2 - - 0.8
26/04:00am 19.9 22.6 19.5 98 0.3 E 4 4 2 2 - - 0.8
26/03:50am 19.7 22.3 19.3 98 0.3 E 4 6 2 3 - - 0.8
26/03:40am 19.4 22.3 19.0 98 0.3 ENE 2 4 1 2 - - 0.8
26/03:30am 19.1 22.2 18.6 97 0.3 CALM 0 2 0 1 - - 0.8
26/03:20am 19.2 22.4 18.8 98 0.3 CALM 0 0 0 0 - - 0.8
26/03:10am 19.1 21.8 18.7 98 0.3 WSW 2 4 1 2 - - 0.8
26/03:00am 18.9 21.5 18.4 97 0.3 S 2 4 1 2 - - 0.8
26/02:50am 19.3 22.1 18.9 98 0.3 E 2 4 1 2 - - 0.8
26/02:40am 19.4 22.2 18.9 97 0.3 E 2 4 1 2 - - 0.8
26/02:30am 19.2 22.3 18.7 97 0.3 CALM 0 4 0 2 - - 0.8
26/02:20am 19.1 22.2 18.6 97 0.3 CALM 0 2 0 1 - - 0.8
26/02:10am 19.6 22.1 19.1 97 0.3 E 4 4 2 2 - - 0.8
26/02:00am 19.6 22.6 19.2 98 0.3 E 2 4 1 2 - - 0.8
26/01:50am 19.6 22.9 19.1 97 0.3 CALM 0 2 0 1 - - 0.6
26/01:40am 19.6 22.5 19.1 97 0.3 SSW 2 4 1 2 - - 0.6
26/01:30am 19.7 22.7 19.2 97 0.3 SSW 2 4 1 2 - - 0.6

Other formats

Comma delimited format used in spreadsheet applications
http://www.bom.gov.au/fwo/IDQ60801/IDQ60801.99123.axf

JavaScript Object Notation format (JSON) in row-major order
http://www.bom.gov.au/fwo/IDQ60801/IDQ60801.99123.json

Data quality

Most of these data are generated automatically and are frequently updated. Quality checks on data are not normally performed. It is possible for incorrect values to appear. Refer to information at About Latest Weather Observations and please check the disclaimer before using these data.